Startpagina
METAR-TAF:

METAR-TAF

Vliegvelden :

Mendoza, Argentinië

breedte: 32-50S, lengte: 068-47W, hoogte: 705 m

Actueel weer

Dit bericht is 42 minuten geleden gemaakt, om 00:00 UTC
Wind 2 kt uit het zuidwesten
Temperatuur 10°C
Vochtigheid 53%
Druk 1019 hPa
Zicht 10 km of meer
geen wolken onder 1500 m en geen cumulonimbus

METAR: SAME 260000Z 23002KT CAVOK 10/01 Q1019

Tijdstip: 21:42 (00:42 UTC)

Verwachting

Dit bericht is 1 uur en het 42 minuten geleden gemaakt, om 23:00 UTC
Verwachting geldig van 26 om 00 UTC tot 26 om 24 UTC
Wind 5 kt uit het noordoosten
Zicht 10 km of meer
Weinig wolken op 4000 ft

TAF: SAME 252300Z 2600/2624 05005KT 9999 FEW040 TX17/2620Z TN05/2610Z

Waarnemingen en weersverwachtingen van meer dan 4000 vliegvelden (METAR en TAF).

De beschikbare stations zijn de gele en rode punten op de kaart.

Ga met uw muis naar het station om de naam te zien.

Klik dan om waarnemingen en weersverwachtingen te zien.

kaart wijzigen: klik op de groene knoppen met een zwart kruis om in te zoomen, op de groene knop met een streepje om uit te zoomen of op de groene pijlen voor aangrenzende kaarten.


METAR-TAF: